createdAt,value
2018-09-04T00:01:37.764Z,71.46
2018-09-04T00:04:05.419Z,72.05
2018-09-04T00:06:33.067Z,71.67
2018-09-04T00:09:00.715Z,71.84
2018-09-04T00:11:28.801Z,72.09
2018-09-04T00:13:56.475Z,71.97
2018-09-04T00:16:24.150Z,72.57
2018-09-04T00:18:51.743Z,72.13
2018-09-04T00:21:19.738Z,72.19
2018-09-04T00:23:47.419Z,73.12
2018-09-04T00:26:15.038Z,73.08
2018-09-04T00:28:44.273Z,72.94
2018-09-04T00:31:11.874Z,72.66
2018-09-04T00:33:39.486Z,72.53
2018-09-04T00:36:07.108Z,72.25
2018-09-04T00:38:35.139Z,72.47
2018-09-04T00:41:02.773Z,71.80
2018-09-04T00:43:30.452Z,71.56
2018-09-04T00:45:58.103Z,72.04
2018-09-04T00:48:26.206Z,72.11
2018-09-04T00:50:53.914Z,72.03
2018-09-04T00:53:21.613Z,71.62
2018-09-04T00:55:49.451Z,71.57
2018-09-04T00:58:17.126Z,71.34
2018-09-04T01:00:44.808Z,70.93
2018-09-04T01:03:12.767Z,70.87
2018-09-04T01:05:40.419Z,71.36
2018-09-04T01:08:08.124Z,71.24
2018-09-04T01:10:35.767Z,71.23
2018-09-04T01:13:03.734Z,70.29
2018-09-04T01:15:31.372Z,70.39
2018-09-04T01:17:59.095Z,70.72
2018-09-04T01:20:26.682Z,70.49
2018-09-04T01:22:54.596Z,70.43
2018-09-04T01:25:22.243Z,70.63
2018-09-04T01:27:49.866Z,70.83
2018-09-04T01:30:17.542Z,70.85
2018-09-04T01:32:45.626Z,70.67
2018-09-04T01:35:13.210Z,70.88
2018-09-04T01:37:41.790Z,70.08
2018-09-04T01:40:09.764Z,70.25
2018-09-04T01:42:37.366Z,70.15
2018-09-04T01:45:05.006Z,70.76
2018-09-04T01:47:32.615Z,70.17
2018-09-04T01:50:00.525Z,69.84
2018-09-04T01:52:28.171Z,70.75
2018-09-04T01:54:55.821Z,70.63
2018-09-04T01:57:24.318Z,70.46
2018-09-04T01:59:51.963Z,70.74
2018-09-04T02:02:20.594Z,70.97
2018-09-04T02:04:48.176Z,70.44
2018-09-04T02:07:16.144Z,70.92
2018-09-04T02:09:43.867Z,70.91
2018-09-04T02:12:11.500Z,70.61
2018-09-04T02:14:39.126Z,70.81
2018-09-04T02:17:07.206Z,70.31
2018-09-04T02:19:34.828Z,70.31
2018-09-04T02:22:02.417Z,70.68
2018-09-04T02:24:30.359Z,71.04
2018-09-04T02:26:57.969Z,70.57
2018-09-04T02:29:25.594Z,70.61
2018-09-04T02:31:53.207Z,70.63
2018-09-04T02:34:21.256Z,71.07
2018-09-04T02:36:48.899Z,71.51
2018-09-04T02:39:16.509Z,71.64
2018-09-04T02:41:44.572Z,71.14
2018-09-04T02:44:12.339Z,71.33
2018-09-04T02:46:39.958Z,71.42
2018-09-04T02:49:07.583Z,71.25
2018-09-04T02:51:35.627Z,71.75
2018-09-04T02:54:03.376Z,71.49
2018-09-04T02:56:31.010Z,72.41
2018-09-04T02:58:59.118Z,72.06
2018-09-04T03:01:26.926Z,71.87
2018-09-04T03:03:54.638Z,72.03
2018-09-04T03:06:22.801Z,72.76
2018-09-04T03:08:50.465Z,72.84
2018-09-04T03:11:18.114Z,73.21
2018-09-04T03:13:45.787Z,73.00
2018-09-04T03:16:13.769Z,72.60
2018-09-04T03:18:41.471Z,73.21
2018-09-04T03:21:09.176Z,73.40
2018-09-04T03:23:37.292Z,73.01
2018-09-04T03:26:04.909Z,73.19
2018-09-04T03:28:32.531Z,73.36
2018-09-04T03:31:00.707Z,73.30
2018-09-04T03:33:28.531Z,73.14
2018-09-04T03:35:56.159Z,73.75
2018-09-04T03:38:24.131Z,73.94
2018-09-04T03:40:51.763Z,73.59
2018-09-04T03:43:19.444Z,73.36
2018-09-04T03:45:47.379Z,73.12
2018-09-04T03:48:15.759Z,73.37
2018-09-04T03:50:43.493Z,73.40
2018-09-04T03:53:11.562Z,73.31
2018-09-04T03:55:40.116Z,74.03
2018-09-04T03:58:07.776Z,73.63
2018-09-04T04:00:35.392Z,73.19
2018-09-04T04:03:03.445Z,74.14
2018-09-04T04:05:31.063Z,73.66
2018-09-04T04:07:58.784Z,73.84
2018-09-04T04:10:26.436Z,73.95
2018-09-04T04:12:54.503Z,73.35
2018-09-04T04:15:22.114Z,73.94
2018-09-04T04:17:49.707Z,73.64
2018-09-04T04:20:17.818Z,73.33
2018-09-04T04:22:45.756Z,73.48
2018-09-04T04:25:13.376Z,73.34
2018-09-04T04:27:41.067Z,73.50
2018-09-04T04:30:09.104Z,74.07
2018-09-04T04:32:36.842Z,74.29
2018-09-04T04:35:04.983Z,73.83
2018-09-04T04:37:33.034Z,73.62
2018-09-04T04:40:00.690Z,73.93
2018-09-04T04:42:28.367Z,73.93
2018-09-04T04:44:56.472Z,74.37
2018-09-04T04:47:29.229Z,73.82
2018-09-04T04:49:56.859Z,73.65
2018-09-04T04:52:24.905Z,74.12
2018-09-04T04:54:52.583Z,73.67
2018-09-04T04:57:21.011Z,73.50
2018-09-04T04:59:48.983Z,73.07
2018-09-04T05:02:16.602Z,73.48
2018-09-04T05:04:44.283Z,72.92
2018-09-04T05:07:12.421Z,72.94
2018-09-04T05:09:41.574Z,73.08
2018-09-04T05:12:09.186Z,73.20
2018-09-04T05:14:37.212Z,73.53
2018-09-04T05:17:05.022Z,72.91
2018-09-04T05:19:32.663Z,72.93
2018-09-04T05:22:00.993Z,72.80
2018-09-04T05:24:28.698Z,73.22
2018-09-04T05:26:56.392Z,73.09
2018-09-04T05:29:24.472Z,73.20
2018-09-04T05:32:03.736Z,72.97
2018-09-04T05:34:31.775Z,73.53
2018-09-04T05:36:59.437Z,73.12
2018-09-04T05:39:27.122Z,73.41
2018-09-04T05:41:59.238Z,73.04
2018-09-04T05:44:27.037Z,72.81
2018-09-04T05:46:55.235Z,72.34
2018-09-04T05:49:28.525Z,72.71
2018-09-04T05:51:56.259Z,72.95
2018-09-04T05:54:24.032Z,72.30
2018-09-04T05:56:52.296Z,72.80
2018-09-04T05:59:19.926Z,72.25
2018-09-04T06:01:47.595Z,71.85
2018-09-04T06:04:15.519Z,72.04
2018-09-04T06:06:44.311Z,72.43
2018-09-04T06:09:12.016Z,72.48
2018-09-04T06:11:43.086Z,71.64
2018-09-04T06:14:10.743Z,71.84
2018-09-04T06:16:38.394Z,71.83
2018-09-04T06:19:06.478Z,71.74
2018-09-04T06:21:34.798Z,71.00
2018-09-04T06:24:02.468Z,70.69
2018-09-04T06:26:30.491Z,71.01
2018-09-04T06:28:58.935Z,70.97
2018-09-04T06:31:26.561Z,71.16
2018-09-04T06:33:54.799Z,71.20
2018-09-04T06:36:22.564Z,70.68
2018-09-04T06:38:50.237Z,70.34
2018-09-04T06:41:18.369Z,70.80
2018-09-04T06:43:46.043Z,71.07
2018-09-04T06:46:14.260Z,70.50
2018-09-04T06:48:43.184Z,70.69
2018-09-04T06:51:11.054Z,70.08
2018-09-04T06:53:38.763Z,70.87
2018-09-04T06:56:07.405Z,69.88
2018-09-04T06:58:35.042Z,70.27
2018-09-04T07:01:02.702Z,69.83
2018-09-04T07:03:30.780Z,69.43
2018-09-04T07:05:58.437Z,68.77
2018-09-04T07:08:26.144Z,69.34
2018-09-04T07:10:56.262Z,68.70
2018-09-04T07:13:23.943Z,68.67
2018-09-04T07:15:51.585Z,69.11
2018-09-04T07:18:19.648Z,69.53
2018-09-04T07:20:47.390Z,68.83
2018-09-04T07:23:15.151Z,69.26
2018-09-04T07:25:43.731Z,69.04
2018-09-04T07:28:13.558Z,68.50
2018-09-04T07:30:42.226Z,68.91
2018-09-04T07:33:11.438Z,67.80
2018-09-04T07:35:39.091Z,67.74
2018-09-04T07:38:08.199Z,67.23
2018-09-04T07:40:37.446Z,67.68
2018-09-04T07:43:05.110Z,66.85
2018-09-04T07:45:33.246Z,66.07
2018-09-04T07:48:02.024Z,67.34
2018-09-04T07:50:30.674Z,67.04
2018-09-04T07:52:58.536Z,66.54
2018-09-04T07:55:26.675Z,67.21
2018-09-04T07:57:55.655Z,66.88
2018-09-04T08:00:24.788Z,67.25
2018-09-04T08:02:53.178Z,66.62
2018-09-04T08:05:21.687Z,65.97
2018-09-04T08:07:49.719Z,65.90
2018-09-04T08:10:18.647Z,65.70
2018-09-04T08:12:47.440Z,66.21
2018-09-04T08:15:15.953Z,65.89
2018-09-04T08:17:46.426Z,64.98
2018-09-04T08:20:14.405Z,65.23
2018-09-04T08:22:42.387Z,64.91
2018-09-04T08:25:10.444Z,65.40
2018-09-04T08:27:38.145Z,65.03
2018-09-04T08:30:06.772Z,64.51
2018-09-04T08:32:36.283Z,64.67
2018-09-04T08:35:03.980Z,64.91
2018-09-04T08:37:31.737Z,65.26
2018-09-04T08:42:33.739Z,65.42
2018-09-04T08:45:01.428Z,64.62
2018-09-04T08:47:29.608Z,64.69
2018-09-04T08:49:57.415Z,65.03
2018-09-04T08:52:25.661Z,64.71
2018-09-04T08:54:53.796Z,64.78
2018-09-04T08:57:21.599Z,64.81
2018-09-04T08:59:50.279Z,64.01
2018-09-04T09:02:18.337Z,63.91
2018-09-04T09:04:46.956Z,64.06
2018-09-04T09:07:14.584Z,63.46
2018-09-04T09:09:44.272Z,62.85
2018-09-04T09:12:12.768Z,62.92
2018-09-04T09:14:43.130Z,61.47
2018-09-04T09:17:11.287Z,60.53
2018-09-04T09:19:40.471Z,60.16
2018-09-04T09:22:08.916Z,59.47
2018-09-04T09:24:38.836Z,58.83
2018-09-04T09:27:06.666Z,59.10
2018-09-04T09:29:34.442Z,58.38
2018-09-04T09:32:03.616Z,58.89
2018-09-04T09:34:31.285Z,57.73
2018-09-04T09:36:58.955Z,57.33
2018-09-04T09:39:27.854Z,56.79
2018-09-04T09:41:57.996Z,57.14
2018-09-04T09:44:28.821Z,57.12
2018-09-04T09:47:02.361Z,57.01
2018-09-04T09:49:31.383Z,58.02
2018-09-04T09:51:59.815Z,57.77
2018-09-04T09:54:27.799Z,57.61
2018-09-04T09:56:55.556Z,56.96
2018-09-04T09:59:23.238Z,56.53
2018-09-04T10:01:58.168Z,56.38
2018-09-04T10:04:26.694Z,56.03
2018-09-04T10:06:56.561Z,54.60
2018-09-04T10:09:24.627Z,54.36
2018-09-04T10:11:52.430Z,52.55
2018-09-04T10:14:20.950Z,51.61
2018-09-04T10:16:51.971Z,50.23
2018-09-04T10:19:20.286Z,50.28
2018-09-04T10:21:47.999Z,49.59
2018-09-04T10:24:17.997Z,48.12
2018-09-04T10:26:47.012Z,48.51
2018-09-04T10:29:15.479Z,47.59
2018-09-04T10:31:44.098Z,48.41
2018-09-04T10:34:12.330Z,46.90
2018-09-04T10:36:45.119Z,46.54
2018-09-04T10:39:18.907Z,47.68
2018-09-04T10:41:46.714Z,48.86
2018-09-04T10:44:14.467Z,49.39
2018-09-04T10:46:43.629Z,48.54
2018-09-04T10:49:11.359Z,47.39
2018-09-04T10:51:39.524Z,46.77
2018-09-04T10:54:07.453Z,46.19
2018-09-04T10:56:35.244Z,44.34
2018-09-04T10:59:04.946Z,44.81
2018-09-04T11:01:32.727Z,44.65
2018-09-04T11:04:02.382Z,45.43
2018-09-04T11:06:30.462Z,44.87
2018-09-04T11:08:58.229Z,44.08
2018-09-04T11:11:25.983Z,43.05
2018-09-04T11:13:55.500Z,43.41
2018-09-04T11:16:23.870Z,43.61
2018-09-04T11:18:51.557Z,43.48
2018-09-04T11:21:19.508Z,41.95
2018-09-04T11:23:48.174Z,42.48
2018-09-04T11:26:16.865Z,41.87
2018-09-04T11:28:45.092Z,41.29
2018-09-04T11:31:13.304Z,41.32
2018-09-04T11:33:42.026Z,40.38
2018-09-04T11:36:11.628Z,40.04
2018-09-04T11:38:39.905Z,40.30
2018-09-04T11:41:07.712Z,40.12
2018-09-04T11:43:36.971Z,39.77
2018-09-04T11:46:04.652Z,39.88
2018-09-04T11:48:36.337Z,38.87
2018-09-04T11:51:05.497Z,39.18
2018-09-04T11:53:34.696Z,38.55
2018-09-04T11:56:03.190Z,39.72
2018-09-04T11:58:31.263Z,39.26
2018-09-04T12:01:00.381Z,40.47
2018-09-04T12:03:28.388Z,41.01
2018-09-04T12:05:58.031Z,39.88
2018-09-04T12:08:25.843Z,40.73
2018-09-04T12:10:56.658Z,39.96
2018-09-04T12:13:30.489Z,38.87
2018-09-04T12:15:58.332Z,39.59
2018-09-04T12:18:26.680Z,39.01
2018-09-04T12:21:00.832Z,39.80
2018-09-04T12:23:28.611Z,39.05
2018-09-04T12:25:57.847Z,38.95
2018-09-04T12:28:26.016Z,38.18
2018-09-04T12:30:54.544Z,39.42
2018-09-04T12:33:22.262Z,39.34
2018-09-04T12:35:51.056Z,38.72
2018-09-04T12:38:21.566Z,38.90
2018-09-04T12:40:49.839Z,39.75
2018-09-04T12:43:19.093Z,38.88
2018-09-04T12:45:51.797Z,39.67
2018-09-04T12:48:24.507Z,38.72
2018-09-04T12:50:53.527Z,37.96
2018-09-04T12:53:21.578Z,39.08
2018-09-04T12:55:49.344Z,38.57
2018-09-04T12:58:17.860Z,40.75
2018-09-04T13:00:47.641Z,43.31
2018-09-04T13:03:16.619Z,45.37
2018-09-04T13:05:44.651Z,46.82
2018-09-04T13:08:12.815Z,47.98
2018-09-04T13:13:21.279Z,47.98
2018-09-04T13:15:53.115Z,46.44
2018-09-04T13:18:22.177Z,46.89
2018-09-04T13:20:51.766Z,46.35
2018-09-04T13:23:20.232Z,47.27
2018-09-04T13:25:50.039Z,46.85
2018-09-04T13:28:18.365Z,45.56
2018-09-04T13:30:46.086Z,44.82
2018-09-04T13:33:14.172Z,45.61
2018-09-04T13:35:42.665Z,45.19
2018-09-04T13:38:10.287Z,45.55
2018-09-04T13:40:39.732Z,45.61
2018-09-04T13:43:07.431Z,46.71
2018-09-04T13:45:35.524Z,46.52
2018-09-04T13:48:03.929Z,45.84
2018-09-04T13:50:31.637Z,45.80
2018-09-04T13:53:00.530Z,45.61
2018-09-04T13:55:28.588Z,45.68
2018-09-04T13:57:57.371Z,45.46
2018-09-04T14:00:26.727Z,45.26
2018-09-04T14:02:54.787Z,44.80
2018-09-04T14:05:28.109Z,45.52
2018-09-04T14:07:56.748Z,45.53
2018-09-04T14:10:24.868Z,45.63
2018-09-04T14:12:55.540Z,44.73
2018-09-04T14:15:23.243Z,45.51
2018-09-04T14:17:54.222Z,44.87
2018-09-04T14:20:22.303Z,46.22
2018-09-04T14:22:50.004Z,45.56
2018-09-04T14:25:18.645Z,45.66
2018-09-04T14:27:50.173Z,45.73
2018-09-04T14:30:17.843Z,45.79
2018-09-04T14:32:46.209Z,46.27
2018-09-04T14:35:13.828Z,45.57
2018-09-04T14:37:41.445Z,45.62
2018-09-04T14:40:09.527Z,45.99
2018-09-04T14:42:37.197Z,47.03
2018-09-04T14:45:04.869Z,47.44
2018-09-04T14:47:34.143Z,47.13
2018-09-04T14:50:03.494Z,47.53
2018-09-04T14:52:45.328Z,48.10
2018-09-04T14:55:14.497Z,48.12
2018-09-04T14:57:42.127Z,47.81
2018-09-04T15:00:09.752Z,47.67
2018-09-04T15:02:38.924Z,48.52
2018-09-04T15:05:07.119Z,48.15
2018-09-04T15:07:35.434Z,47.85
2018-09-04T15:10:03.474Z,48.45
2018-09-04T15:12:31.208Z,48.34
2018-09-04T15:14:59.804Z,47.48
2018-09-04T15:17:29.370Z,47.99
2018-09-04T15:19:56.993Z,47.85
2018-09-04T15:22:24.662Z,48.38
2018-09-04T15:24:53.656Z,49.10
2018-09-04T15:27:23.562Z,48.26
2018-09-04T15:29:51.367Z,48.59
2018-09-04T15:32:19.479Z,49.16
2018-09-04T15:34:47.387Z,49.88
2018-09-04T15:37:15.803Z,50.97
2018-09-04T15:39:43.791Z,51.32
2018-09-04T15:42:11.395Z,51.52
2018-09-04T15:44:39.900Z,52.20
2018-09-04T15:47:07.896Z,52.72
2018-09-04T15:49:40.591Z,52.93
2018-09-04T15:52:09.565Z,53.13
2018-09-04T15:54:37.557Z,53.13
2018-09-04T15:57:05.182Z,53.22
2018-09-04T15:59:32.854Z,53.12
2018-09-04T16:02:01.705Z,53.28
2018-09-04T16:04:29.332Z,53.75
2018-09-04T16:06:58.308Z,53.40
2018-09-04T16:09:26.645Z,54.26
2018-09-04T16:11:54.768Z,53.55
2018-09-04T16:14:23.698Z,54.07
2018-09-04T16:16:53.431Z,53.76
2018-09-04T16:19:24.719Z,53.93
2018-09-04T16:21:54.245Z,54.25
2018-09-04T16:24:23.690Z,53.70
2018-09-04T16:26:53.022Z,53.73
2018-09-04T16:29:20.722Z,54.27
2018-09-04T16:31:50.549Z,54.07
2018-09-04T16:34:19.041Z,54.28
2018-09-04T16:36:46.751Z,54.22
2018-09-04T16:39:15.576Z,54.07
2018-09-04T16:41:45.211Z,53.78
2018-09-04T16:44:13.073Z,54.09
2018-09-04T16:46:41.119Z,53.92
2018-09-04T16:49:09.437Z,54.47
2018-09-04T16:51:37.905Z,54.27
2018-09-04T16:54:09.525Z,54.82
2018-09-04T16:56:37.163Z,55.09
2018-09-04T16:59:06.059Z,54.53
2018-09-04T17:01:34.971Z,54.70
2018-09-04T17:04:02.585Z,54.51
2018-09-04T17:06:34.279Z,54.58
2018-09-04T17:09:02.234Z,55.01
2018-09-04T17:11:31.477Z,55.05
2018-09-04T17:14:06.307Z,55.69
2018-09-04T17:16:34.894Z,56.05
2018-09-04T17:19:15.200Z,55.50
2018-09-04T17:21:46.066Z,55.36
2018-09-04T17:24:13.682Z,56.18
2018-09-04T17:26:42.570Z,56.38
2018-09-04T17:29:10.639Z,56.24
2018-09-04T17:31:38.396Z,56.18
2018-09-04T17:34:07.759Z,55.95
2018-09-04T17:36:36.881Z,56.05
2018-09-04T17:39:06.517Z,55.92
2018-09-04T17:41:34.828Z,56.54
2018-09-04T17:44:05.550Z,56.71
2018-09-04T17:46:34.485Z,56.82
2018-09-04T17:49:02.278Z,56.94
2018-09-04T17:51:32.898Z,56.86
2018-09-04T17:54:00.633Z,56.62
2018-09-04T17:56:28.347Z,56.39
2018-09-04T17:58:56.379Z,56.69
2018-09-04T18:01:25.570Z,56.65
2018-09-04T18:03:53.620Z,57.09
2018-09-04T18:06:22.366Z,57.41
2018-09-04T18:08:52.382Z,57.44
2018-09-04T18:11:20.915Z,57.05
2018-09-04T18:13:49.470Z,56.71
2018-09-04T18:16:17.123Z,56.81
2018-09-04T18:18:44.802Z,56.68
2018-09-04T18:21:13.886Z,57.19
2018-09-04T18:23:42.148Z,57.53
2018-09-04T18:26:09.793Z,56.78
2018-09-04T18:28:37.809Z,57.11
2018-09-04T18:31:05.418Z,56.98
2018-09-04T18:33:35.158Z,57.22
2018-09-04T18:36:04.278Z,57.28
2018-09-04T18:38:32.087Z,57.90
2018-09-04T18:40:59.731Z,57.49
2018-09-04T18:43:27.364Z,56.96
2018-09-04T18:45:58.488Z,58.01
2018-09-04T18:48:26.949Z,57.89
2018-09-04T18:50:54.637Z,57.63
2018-09-04T18:53:22.257Z,57.42
2018-09-04T18:55:50.270Z,58.21
2018-09-04T18:58:19.135Z,57.52
2018-09-04T19:00:47.851Z,58.65
2018-09-04T19:03:15.890Z,57.79
2018-09-04T19:05:43.647Z,58.34
2018-09-04T19:08:12.316Z,58.04
2018-09-04T19:10:40.420Z,58.75
2018-09-04T19:13:08.523Z,58.25
2018-09-04T19:15:36.220Z,58.15
2018-09-04T19:18:04.817Z,58.89
2018-09-04T19:20:32.615Z,58.31
2018-09-04T19:23:00.912Z,58.80
2018-09-04T19:25:28.987Z,58.87
2018-09-04T19:27:57.334Z,58.75
2018-09-04T19:30:25.017Z,58.22
2018-09-04T19:32:54.253Z,58.90
2018-09-04T19:35:21.894Z,58.61
2018-09-04T19:37:49.571Z,58.78
2018-09-04T19:40:17.598Z,59.18
2018-09-04T19:42:45.311Z,59.18
2018-09-04T19:45:13.764Z,59.63
2018-09-04T19:47:44.440Z,59.18
2018-09-04T19:50:12.723Z,59.71
2018-09-04T19:52:40.628Z,59.09
2018-09-04T19:55:08.750Z,59.38
2018-09-04T19:57:36.436Z,59.33
2018-09-04T20:00:04.064Z,59.17
2018-09-04T20:02:32.210Z,59.84
2018-09-04T20:05:06.746Z,59.58
2018-09-04T20:07:34.384Z,60.17
2018-09-04T20:10:02.518Z,59.73
2018-09-04T20:12:30.182Z,59.67
2018-09-04T20:14:57.882Z,59.90
2018-09-04T20:17:26.625Z,59.65
2018-09-04T20:19:54.303Z,60.22
2018-09-04T20:22:21.958Z,59.83
2018-09-04T20:24:50.050Z,60.24
2018-09-04T20:27:17.728Z,59.88
2018-09-04T20:29:45.584Z,60.24
2018-09-04T20:32:13.515Z,59.89
2018-09-04T20:34:41.104Z,60.50
2018-09-04T20:37:09.408Z,60.67
2018-09-04T20:39:37.334Z,60.67
2018-09-04T20:42:04.967Z,60.84
2018-09-04T20:44:32.638Z,60.45
2018-09-04T20:47:00.767Z,60.69
2018-09-04T20:49:28.385Z,61.28
2018-09-04T20:51:57.523Z,61.10
2018-09-04T20:54:26.310Z,61.17
2018-09-04T20:56:54.982Z,61.91
2018-09-04T20:59:23.189Z,61.85
2018-09-04T21:01:52.257Z,61.34
2018-09-04T21:04:20.521Z,61.86
2018-09-04T21:06:51.309Z,62.32
2018-09-04T21:09:24.350Z,62.48
2018-09-04T21:11:51.983Z,62.24
2018-09-04T21:14:19.721Z,62.55
2018-09-04T21:16:48.656Z,62.89
2018-09-04T21:19:16.311Z,62.29
2018-09-04T21:21:47.116Z,61.98
2018-09-04T21:24:16.267Z,62.02
2018-09-04T21:26:43.926Z,62.20
2018-09-04T21:29:11.664Z,62.59
2018-09-04T21:31:39.743Z,61.93
2018-09-04T21:34:07.375Z,62.05
2018-09-04T21:36:36.633Z,62.36
2018-09-04T21:39:06.344Z,62.33
2018-09-04T21:41:36.014Z,62.37
2018-09-04T21:44:03.712Z,62.51
2018-09-04T21:46:31.753Z,62.06
2018-09-04T21:48:59.743Z,61.79
2018-09-04T21:51:27.390Z,62.43
2018-09-04T21:53:55.581Z,62.14
2018-09-04T21:56:24.000Z,62.04
2018-09-04T21:58:51.661Z,62.08
2018-09-04T22:01:20.894Z,62.27
2018-09-04T22:03:50.074Z,62.36
2018-09-04T22:06:18.717Z,62.90
2018-09-04T22:08:47.333Z,62.17
2018-09-04T22:11:15.014Z,62.85
2018-09-04T22:13:42.951Z,62.58
2018-09-04T22:16:12.205Z,63.01
2018-09-04T22:18:40.675Z,62.70
2018-09-04T22:21:09.352Z,63.00
2018-09-04T22:23:38.508Z,62.72
2018-09-04T22:26:06.484Z,63.04
2018-09-04T22:28:35.365Z,63.31
2018-09-04T22:31:03.401Z,63.28
2018-09-04T22:33:31.076Z,62.35
2018-09-04T22:35:58.689Z,62.48
2018-09-04T22:38:26.818Z,62.67
2018-09-04T22:40:55.413Z,63.31
2018-09-04T22:43:23.088Z,63.29
2018-09-04T22:45:50.700Z,63.24
2018-09-04T22:48:18.756Z,62.73
2018-09-04T22:50:53.522Z,62.84
2018-09-04T22:53:21.251Z,63.40
2018-09-04T22:55:49.184Z,62.85
2018-09-04T22:58:16.945Z,62.86
2018-09-04T23:00:44.605Z,63.25
2018-09-04T23:03:12.672Z,62.70
2018-09-04T23:05:42.044Z,62.92
2018-09-04T23:08:10.195Z,63.39
2018-09-04T23:10:39.147Z,63.55
2018-09-04T23:13:06.794Z,63.07
2018-09-04T23:15:38.460Z,62.73
2018-09-04T23:18:06.587Z,63.52
2018-09-04T23:20:35.221Z,63.28
2018-09-04T23:23:02.858Z,62.94
2018-09-04T23:25:31.563Z,63.09
2018-09-04T23:27:59.247Z,63.16
2018-09-04T23:30:27.674Z,63.53
2018-09-04T23:32:55.296Z,62.99
2018-09-04T23:35:22.936Z,63.19
2018-09-04T23:37:50.622Z,63.33
2018-09-04T23:40:18.802Z,63.57
2018-09-04T23:42:46.430Z,63.93
2018-09-04T23:45:14.835Z,63.32
2018-09-04T23:47:46.563Z,63.34
2018-09-04T23:50:14.190Z,63.20
2018-09-04T23:52:42.126Z,63.96
2018-09-04T23:55:10.267Z,64.13
2018-09-04T23:57:38.074Z,63.86
